Time;durP1;ratioP1;P1;durP2;ratioP2;P2;SDS_P1;SDS_P2;PMS_P1;PMS_P2;Temp;Humidity;BMP_temperature;BMP_pressure;BME280_temperature;BME280_humidity;BME280_pressure;Samples;Min_cycle;Max_cycle;Signal;HPM_P1;HPM_P2
2021/01/11 00:01:06;;;;;;;;;;;3.80;82.70;;;;;;5077554;28;19944;-72
2021/01/11 00:03:32;;;;;;;;;;;3.80;82.90;;;;;;5077806;28;19951;-73
2021/01/11 00:05:58;;;;;;;;;;;3.70;82.80;;;;;;5077659;28;19924;-73
2021/01/11 00:08:24;;;;;;;;;;;3.70;82.90;;;;;;5078309;28;19947;-73
2021/01/11 00:10:50;;;;;;;;;;;3.70;83.20;;;;;;5077690;28;19909;-74
2021/01/11 00:13:17;;;;;;;;;;;3.70;83.30;;;;;;5078153;28;19928;-74
2021/01/11 00:15:46;;;;;;;;;;;3.60;83.70;;;;;;5073257;28;19924;-73
2021/01/11 00:18:13;;;;;;;;;;;3.60;83.80;;;;;;5078103;28;20628;-73
2021/01/11 00:20:42;;;;;;;;;;;3.60;84.60;;;;;;5093044;28;19924;-73
2021/01/11 00:23:26;;;;;;;;;;;3.60;84.10;;;;;;5118833;28;19930;-73
2021/01/11 00:25:52;;;;;;;;;;;3.60;83.90;;;;;;5119371;28;19920;-74
2021/01/11 00:28:18;;;;;;;;;;;3.70;83.50;;;;;;5119840;28;19922;-73
2021/01/11 00:30:50;;;;;;;;;;;3.70;83.30;;;;;;5119150;28;19908;-72
2021/01/11 00:33:19;;;;;;;;;;;3.70;83.50;;;;;;5118843;28;19930;-73
2021/01/11 00:35:56;;;;;;;;;;;3.70;82.90;;;;;;5103584;28;19908;-73
2021/01/11 00:38:22;;;;;;;;;;;3.70;82.90;;;;;;5115025;28;19955;-72
2021/01/11 00:40:48;;;;;;;;;;;3.70;82.80;;;;;;5114220;28;19924;-73
2021/01/11 00:43:14;;;;;;;;;;;3.70;82.90;;;;;;5111026;28;19924;-72
2021/01/11 00:45:45;;;;;;;;;;;3.60;83.20;;;;;;5110230;28;19931;-73
2021/01/11 00:48:26;;;;;;;;;;;3.60;83.30;;;;;;5109798;28;19931;-72
2021/01/11 00:50:52;;;;;;;;;;;3.50;84.00;;;;;;5106193;28;19961;-72
2021/01/11 00:53:18;;;;;;;;;;;3.50;84.20;;;;;;5104793;28;19931;-72
2021/01/11 00:55:44;;;;;;;;;;;3.50;84.20;;;;;;5102465;28;20005;-72
2021/01/11 00:58:11;;;;;;;;;;;3.50;84.00;;;;;;5102791;28;19959;-72
2021/01/11 01:00:37;;;;;;;;;;;3.60;83.70;;;;;;5099515;28;19952;-73
2021/01/11 01:03:03;;;;;;;;;;;3.50;83.80;;;;;;5119240;28;19934;-73
2021/01/11 01:05:29;;;;;;;;;;;3.50;84.00;;;;;;5119529;28;19908;-72
2021/01/11 01:07:56;;;;;;;;;;;3.50;84.00;;;;;;5118351;28;20399;-72
2021/01/11 01:10:22;;;;;;;;;;;3.50;84.10;;;;;;5115885;28;19959;-72
2021/01/11 01:12:48;;;;;;;;;;;3.50;84.30;;;;;;5112480;28;19924;-72
2021/01/11 01:15:14;;;;;;;;;;;3.50;84.20;;;;;;5109309;28;19924;-72
2021/01/11 01:17:40;;;;;;;;;;;3.50;83.90;;;;;;5090935;28;19980;-72
2021/01/11 01:20:14;;;;;;;;;;;3.50;83.90;;;;;;5104488;28;19939;-73
2021/01/11 01:22:44;;;;;;;;;;;3.60;83.70;;;;;;5108231;28;19992;-72
2021/01/11 01:25:11;;;;;;;;;;;3.50;83.90;;;;;;5106155;28;19959;-72
2021/01/11 01:27:37;;;;;;;;;;;3.50;83.90;;;;;;5104537;28;19983;-72
2021/01/11 01:30:03;;;;;;;;;;;3.40;84.10;;;;;;5109285;28;19988;-72
2021/01/11 01:32:29;;;;;;;;;;;3.40;84.30;;;;;;5095796;28;19924;-73
2021/01/11 01:34:56;;;;;;;;;;;3.40;84.40;;;;;;5111170;28;19924;-72
2021/01/11 01:37:22;;;;;;;;;;;3.30;84.60;;;;;;5090467;28;20007;-73
2021/01/11 01:39:48;;;;;;;;;;;3.40;84.40;;;;;;5105791;28;19991;-73
2021/01/11 01:42:15;;;;;;;;;;;3.30;84.60;;;;;;5105214;28;19964;-74
2021/01/11 01:44:41;;;;;;;;;;;3.30;84.60;;;;;;5100797;28;19924;-73
2021/01/11 01:47:07;;;;;;;;;;;3.20;84.70;;;;;;5076538;28;19946;-73
2021/01/11 01:49:35;;;;;;;;;;;3.30;84.30;;;;;;5094537;28;19924;-73
2021/01/11 01:52:04;;;;;;;;;;;3.30;84.30;;;;;;5081626;28;20363;-72
2021/01/11 01:54:30;;;;;;;;;;;3.30;84.00;;;;;;5097186;28;19930;-73
2021/01/11 01:56:57;;;;;;;;;;;3.30;83.90;;;;;;5100827;28;19907;-74
2021/01/11 01:59:24;;;;;;;;;;;3.20;84.00;;;;;;5118088;28;19912;-73
2021/01/11 02:01:54;;;;;;;;;;;3.30;84.00;;;;;;5117290;28;19908;-73
2021/01/11 02:04:20;;;;;;;;;;;3.30;84.00;;;;;;5095622;28;19908;-73
2021/01/11 02:06:51;;;;;;;;;;;3.30;84.00;;;;;;5090081;28;19924;-73
2021/01/11 02:09:24;;;;;;;;;;;3.40;83.50;;;;;;5105472;28;19986;-72
2021/01/11 02:11:53;;;;;;;;;;;3.60;82.70;;;;;;5107905;28;19959;-77
2021/01/11 02:14:45;;;;;;;;;;;3.70;82.30;;;;;;5116630;28;20395;-73
2021/01/11 02:17:28;;;;;;;;;;;3.70;82.00;;;;;;5078379;28;19947;-73
2021/01/11 02:20:13;;;;;;;;;;;3.70;81.80;;;;;;5099416;28;19931;-73
2021/01/11 02:22:47;;;;;;;;;;;3.80;81.70;;;;;;5102489;28;19924;-74
2021/01/11 02:25:22;;;;;;;;;;;3.80;81.70;;;;;;5102504;28;19963;-73
2021/01/11 02:27:55;;;;;;;;;;;3.80;81.80;;;;;;5118991;28;19915;-73
2021/01/11 02:30:25;;;;;;;;;;;3.80;81.50;;;;;;5120121;28;20375;-73
2021/01/11 02:32:59;;;;;;;;;;;3.90;81.30;;;;;;5119415;28;19909;-73
2021/01/11 02:35:27;;;;;;;;;;;3.90;81.40;;;;;;5104637;28;19915;-74
2021/01/11 02:37:53;;;;;;;;;;;3.90;81.10;;;;;;5121371;28;19966;-76
2021/01/11 02:40:35;;;;;;;;;;;4.00;80.90;;;;;;5120717;28;19924;-74
2021/01/11 02:43:01;;;;;;;;;;;4.20;80.40;;;;;;5121544;28;19956;-74
2021/01/11 02:45:29;;;;;;;;;;;4.20;80.80;;;;;;5116654;28;19958;-73
2021/01/11 02:47:59;;;;;;;;;;;4.20;79.90;;;;;;5117677;28;19924;-73
2021/01/11 02:50:26;;;;;;;;;;;4.30;79.40;;;;;;5116106;28;19908;-73
2021/01/11 02:53:04;;;;;;;;;;;4.40;79.20;;;;;;5116682;28;19916;-73
2021/01/11 02:55:49;;;;;;;;;;;4.50;78.50;;;;;;5118339;28;19993;-74
2021/01/11 02:58:20;;;;;;;;;;;4.60;78.10;;;;;;5113920;28;19939;-73
2021/01/11 03:00:48;;;;;;;;;;;4.60;78.00;;;;;;5094924;28;19946;-73
2021/01/11 03:03:15;;;;;;;;;;;4.70;77.90;;;;;;5114219;28;19930;-73
2021/01/11 03:05:42;;;;;;;;;;;4.70;77.60;;;;;;5114504;28;20005;-73
2021/01/11 03:08:08;;;;;;;;;;;4.70;77.30;;;;;;5120044;28;19915;-74
2021/01/11 03:10:34;;;;;;;;;;;4.80;76.90;;;;;;5119975;28;19924;-73
2021/01/11 03:13:00;;;;;;;;;;;4.60;77.20;;;;;;5120157;28;19924;-74
2021/01/11 03:15:33;;;;;;;;;;;4.70;77.40;;;;;;5119006;28;19978;-75
2021/01/11 03:18:00;;;;;;;;;;;4.70;77.40;;;;;;5116348;28;19991;-73
2021/01/11 03:20:26;;;;;;;;;;;4.70;77.50;;;;;;5112623;28;19939;-73
2021/01/11 03:22:52;;;;;;;;;;;4.80;77.00;;;;;;5114808;28;19931;-73
2021/01/11 03:25:18;;;;;;;;;;;4.90;76.60;;;;;;5114446;28;19978;-73
2021/01/11 03:27:44;;;;;;;;;;;4.90;76.60;;;;;;5102538;28;19920;-74
2021/01/11 03:30:11;;;;;;;;;;;4.80;76.70;;;;;;5119599;28;19946;-73
2021/01/11 03:32:37;;;;;;;;;;;4.60;77.80;;;;;;5118318;28;19924;-73
2021/01/11 03:35:03;;;;;;;;;;;4.50;78.80;;;;;;5093299;28;19924;-73
2021/01/11 03:37:35;;;;;;;;;;;4.60;78.90;;;;;;5113725;28;19950;-73
2021/01/11 03:40:02;;;;;;;;;;;4.70;77.90;;;;;;5109335;28;20022;-73
2021/01/11 03:42:35;;;;;;;;;;;4.90;77.90;;;;;;5108693;28;19983;-73
2021/01/11 03:45:02;;;;;;;;;;;4.60;78.00;;;;;;5107492;28;19950;-73
2021/01/11 03:47:28;;;;;;;;;;;4.50;78.80;;;;;;5108810;28;19978;-73
2021/01/11 03:49:57;;;;;;;;;;;4.40;79.20;;;;;;5105573;28;19927;-73
2021/01/11 03:52:24;;;;;;;;;;;4.50;80.20;;;;;;5086583;28;19924;-73
2021/01/11 03:54:51;;;;;;;;;;;4.70;79.10;;;;;;5106464;28;19959;-73
2021/01/11 03:57:18;;;;;;;;;;;4.90;78.10;;;;;;5087062;28;19923;-73
2021/01/11 03:59:49;;;;;;;;;;;5.10;77.50;;;;;;5076114;28;19931;-73
2021/01/11 04:02:15;;;;;;;;;;;5.10;77.10;;;;;;5095431;28;19924;-73
2021/01/11 04:04:59;;;;;;;;;;;5.10;77.20;;;;;;5115058;28;19928;-73
2021/01/11 04:07:26;;;;;;;;;;;5.20;77.00;;;;;;5115425;28;19908;-73
2021/01/11 04:09:53;;;;;;;;;;;5.20;76.70;;;;;;5118500;28;19920;-73
2021/01/11 04:12:19;;;;;;;;;;;5.20;76.70;;;;;;5098832;28;19909;-73
2021/01/11 04:14:45;;;;;;;;;;;5.20;76.20;;;;;;5119352;28;19908;-72
2021/01/11 04:17:11;;;;;;;;;;;5.20;76.10;;;;;;5119096;28;19924;-73
2021/01/11 04:19:37;;;;;;;;;;;5.20;76.20;;;;;;5118144;28;19931;-73
2021/01/11 04:22:09;;;;;;;;;;;5.10;76.30;;;;;;5087134;28;19924;-73
2021/01/11 04:24:35;;;;;;;;;;;5.10;76.40;;;;;;5104564;28;19928;-73
2021/01/11 04:27:05;;;;;;;;;;;5.40;76.30;;;;;;5096352;28;19951;-72
2021/01/11 04:29:32;;;;;;;;;;;5.20;76.00;;;;;;5094840;28;19928;-72
2021/01/11 04:31:59;;;;;;;;;;;5.20;75.90;;;;;;5094682;28;19924;-72
2021/01/11 04:34:25;;;;;;;;;;;5.20;75.90;;;;;;5096140;28;20024;-73
2021/01/11 04:36:51;;;;;;;;;;;5.20;75.70;;;;;;5102504;28;20007;-73
2021/01/11 04:39:17;;;;;;;;;;;5.10;76.60;;;;;;5087287;28;19916;-72
2021/01/11 04:41:44;;;;;;;;;;;5.10;76.70;;;;;;5114185;28;19932;-72
2021/01/11 04:44:12;;;;;;;;;;;5.20;76.50;;;;;;5113244;28;19908;-72
2021/01/11 04:46:38;;;;;;;;;;;5.30;76.10;;;;;;5111540;28;19924;-72
2021/01/11 04:49:24;;;;;;;;;;;5.30;76.20;;;;;;5094617;28;19946;-72
2021/01/11 04:51:50;;;;;;;;;;;5.30;76.30;;;;;;5112602;28;19931;-72
2021/01/11 04:54:17;;;;;;;;;;;5.40;76.10;;;;;;5098239;28;19991;-73
2021/01/11 04:56:46;;;;;;;;;;;5.40;76.00;;;;;;5116228;28;19970;-73
2021/01/11 04:59:18;;;;;;;;;;;5.40;75.70;;;;;;5097282;28;19920;-73
2021/01/11 05:01:52;;;;;;;;;;;5.50;75.90;;;;;;5115643;28;19924;-72
2021/01/11 05:04:28;;;;;;;;;;;5.50;75.60;;;;;;5113763;28;19908;-73
2021/01/11 05:07:01;;;;;;;;;;;5.60;75.60;;;;;;5115191;28;19927;-72
2021/01/11 05:09:28;;;;;;;;;;;5.60;75.50;;;;;;5116095;28;20429;-75
2021/01/11 05:11:59;;;;;;;;;;;5.50;76.10;;;;;;5118396;28;19928;-74
2021/01/11 05:14:25;;;;;;;;;;;5.50;76.50;;;;;;5097485;28;19931;-73
2021/01/11 05:17:01;;;;;;;;;;;5.40;75.90;;;;;;5114083;28;19947;-73
2021/01/11 05:19:27;;;;;;;;;;;5.40;75.90;;;;;;5111610;28;19924;-74
2021/01/11 05:21:55;;;;;;;;;;;5.30;76.20;;;;;;5100881;28;19924;-73
2021/01/11 05:24:37;;;;;;;;;;;5.30;76.20;;;;;;5109211;28;19924;-73
2021/01/11 05:27:05;;;;;;;;;;;5.40;76.00;;;;;;5116414;28;19908;-73
2021/01/11 05:29:31;;;;;;;;;;;5.30;76.20;;;;;;5117941;28;19924;-73
2021/01/11 05:32:08;;;;;;;;;;;5.30;76.10;;;;;;5118081;28;19923;-74
2021/01/11 05:34:45;;;;;;;;;;;5.40;75.80;;;;;;5114615;28;19924;-75
2021/01/11 05:37:37;;;;;;;;;;;5.30;76.30;;;;;;5115519;28;19957;-73
2021/01/11 05:40:12;;;;;;;;;;;5.40;76.20;;;;;;5117225;28;19924;-72
2021/01/11 05:42:39;;;;;;;;;;;5.40;76.00;;;;;;5118027;28;19908;-79
2021/01/11 05:45:18;;;;;;;;;;;5.40;75.70;;;;;;5100639;28;19920;-73
2021/01/11 05:47:58;;;;;;;;;;;5.40;75.70;;;;;;5116605;28;19924;-76
2021/01/11 05:50:25;;;;;;;;;;;5.40;75.80;;;;;;5090147;28;19946;-73
2021/01/11 05:52:53;;;;;;;;;;;5.20;75.50;;;;;;5119729;28;19976;-73
2021/01/11 05:55:21;;;;;;;;;;;5.20;76.70;;;;;;5121773;28;19908;-72
2021/01/11 05:57:57;;;;;;;;;;;5.30;76.40;;;;;;5119329;28;19924;-72
2021/01/11 06:00:24;;;;;;;;;;;5.40;75.50;;;;;;5115187;28;19928;-73
2021/01/11 06:02:50;;;;;;;;;;;5.20;76.00;;;;;;5118111;28;19913;-73
2021/01/11 06:05:17;;;;;;;;;;;5.30;75.80;;;;;;5117102;28;19924;-72
2021/01/11 06:08:00;;;;;;;;;;;5.30;75.60;;;;;;5119483;28;20322;-73
2021/01/11 06:10:26;;;;;;;;;;;5.50;75.10;;;;;;5120021;28;19924;-73
2021/01/11 06:13:02;;;;;;;;;;;5.50;75.20;;;;;;5102807;28;19915;-73
2021/01/11 06:15:28;;;;;;;;;;;5.60;74.80;;;;;;5118823;28;19924;-74
2021/01/11 06:17:56;;;;;;;;;;;5.60;74.50;;;;;;5119392;28;19950;-72
2021/01/11 06:20:29;;;;;;;;;;;5.60;74.30;;;;;;5100240;28;19927;-77
2021/01/11 06:22:56;;;;;;;;;;;5.60;75.30;;;;;;5102135;28;19924;-75
2021/01/11 06:25:32;;;;;;;;;;;5.70;75.00;;;;;;5119673;28;19928;-74
2021/01/11 06:28:04;;;;;;;;;;;5.80;75.20;;;;;;5118408;28;19928;-79
2021/01/11 06:30:38;;;;;;;;;;;5.80;75.00;;;;;;5113865;28;19924;-77
2021/01/11 06:33:27;;;;;;;;;;;5.80;74.40;;;;;;5092916;28;19924;-74
2021/01/11 06:35:53;;;;;;;;;;;5.40;75.30;;;;;;5104815;28;19928;-72
2021/01/11 06:38:21;;;;;;;;;;;5.40;75.80;;;;;;5097289;28;20019;-72
2021/01/11 06:40:51;;;;;;;;;;;5.30;76.30;;;;;;5078677;28;20014;-71
2021/01/11 06:43:17;;;;;;;;;;;5.40;76.30;;;;;;5080030;28;19932;-72
2021/01/11 06:45:44;;;;;;;;;;;5.20;76.80;;;;;;5080452;28;19924;-73
2021/01/11 06:48:15;;;;;;;;;;;5.30;76.90;;;;;;5099024;28;20015;-75
2021/01/11 06:50:41;;;;;;;;;;;5.40;77.10;;;;;;5097709;28;19978;-74
2021/01/11 06:53:08;;;;;;;;;;;5.60;77.30;;;;;;5079220;28;20318;-73
2021/01/11 06:55:34;;;;;;;;;;;5.70;76.30;;;;;;5094764;28;19982;-72
2021/01/11 06:58:01;;;;;;;;;;;5.70;76.00;;;;;;5094596;28;19975;-73
2021/01/11 07:00:29;;;;;;;;;;;5.80;75.90;;;;;;5094668;28;19924;-74
2021/01/11 07:02:57;;;;;;;;;;;5.90;75.70;;;;;;5094111;28;19924;-74
2021/01/11 07:05:33;;;;;;;;;;;6.00;75.50;;;;;;5094285;28;19924;-73
2021/01/11 07:08:00;;;;;;;;;;;6.00;75.30;;;;;;5114388;27;19985;-73
2021/01/11 07:10:26;;;;;;;;;;;6.00;75.30;;;;;;5118476;28;19947;-74
2021/01/11 07:13:12;;;;;;;;;;;6.00;75.10;;;;;;5118070;28;19994;-73
2021/01/11 07:15:38;;;;;;;;;;;6.10;75.30;;;;;;5114417;28;20011;-75
2021/01/11 07:18:05;;;;;;;;;;;6.10;74.90;;;;;;5122150;28;19923;-73
2021/01/11 07:20:40;;;;;;;;;;;6.20;74.70;;;;;;5110017;28;20436;-73
2021/01/11 07:23:07;;;;;;;;;;;6.20;75.40;;;;;;5130515;28;19974;-79
2021/01/11 07:25:36;;;;;;;;;;;6.20;74.60;;;;;;5132671;28;19983;-78
2021/01/11 07:28:12;;;;;;;;;;;6.30;74.30;;;;;;5130689;28;19947;-75
2021/01/11 07:30:39;;;;;;;;;;;6.30;73.10;;;;;;5113201;28;19935;-77
2021/01/11 07:33:11;;;;;;;;;;;6.20;73.00;;;;;;5121667;28;19924;-76
2021/01/11 07:35:38;;;;;;;;;;;6.30;73.90;;;;;;5124680;28;19927;-76
2021/01/11 07:38:10;;;;;;;;;;;6.30;73.10;;;;;;5114293;28;19947;-77
2021/01/11 07:40:36;;;;;;;;;;;6.40;73.40;;;;;;5126695;28;19924;-77
2021/01/11 07:43:02;;;;;;;;;;;6.50;73.40;;;;;;5128426;28;19967;-79
2021/01/11 07:45:28;;;;;;;;;;;6.40;73.50;;;;;;5127086;28;19935;-77
2021/01/11 07:47:54;;;;;;;;;;;6.40;73.70;;;;;;5109781;28;19923;-74
2021/01/11 07:50:27;;;;;;;;;;;6.40;73.80;;;;;;5109924;28;19973;-73
2021/01/11 07:52:55;;;;;;;;;;;6.50;73.50;;;;;;5130458;28;20007;-75
2021/01/11 07:55:28;;;;;;;;;;;6.50;73.20;;;;;;5130297;28;19924;-73
2021/01/11 07:58:02;;;;;;;;;;;6.50;73.60;;;;;;5110866;28;20010;-73
2021/01/11 08:00:29;;;;;;;;;;;6.50;73.60;;;;;;5126210;28;19924;-75
2021/01/11 08:02:56;;;;;;;;;;;6.50;73.20;;;;;;5122877;28;20010;-77
2021/01/11 08:05:23;;;;;;;;;;;6.60;73.20;;;;;;5122339;28;19989;-75
2021/01/11 08:07:54;;;;;;;;;;;6.60;73.20;;;;;;5119564;28;19924;-76
2021/01/11 08:10:23;;;;;;;;;;;6.60;73.20;;;;;;5117479;28;19967;-73
2021/01/11 08:12:50;;;;;;;;;;;6.60;73.20;;;;;;5117219;28;19994;-73
2021/01/11 08:15:18;;;;;;;;;;;6.60;73.20;;;;;;5118134;28;20379;-73
2021/01/11 08:17:44;;;;;;;;;;;6.60;73.00;;;;;;5125763;28;20447;-77
2021/01/11 08:20:10;;;;;;;;;;;6.60;73.20;;;;;;5101188;28;20106;-79
2021/01/11 08:22:36;;;;;;;;;;;6.60;73.30;;;;;;5120105;28;19939;-77
2021/01/11 08:25:03;;;;;;;;;;;6.60;72.90;;;;;;5113843;28;19974;-77
2021/01/11 08:27:29;;;;;;;;;;;6.50;72.80;;;;;;5125831;28;19927;-80
2021/01/11 08:29:58;;;;;;;;;;;6.50;72.80;;;;;;5124900;28;19975;-74
2021/01/11 08:32:26;;;;;;;;;;;6.50;72.60;;;;;;5124908;28;20410;-74
2021/01/11 08:34:53;;;;;;;;;;;6.70;71.70;;;;;;5122538;28;19996;-73
2021/01/11 08:37:31;;;;;;;;;;;6.80;71.80;;;;;;5105073;28;19923;-72
2021/01/11 08:40:00;;;;;;;;;;;6.70;71.00;;;;;;5122593;28;19975;-73
2021/01/11 08:42:26;;;;;;;;;;;6.80;70.20;;;;;;5102082;28;19970;-72
2021/01/11 08:44:53;;;;;;;;;;;6.70;70.20;;;;;;5124886;28;19927;-77
2021/01/11 08:47:26;;;;;;;;;;;6.50;71.10;;;;;;5127272;28;19923;-76
2021/01/11 08:50:04;;;;;;;;;;;6.50;70.30;;;;;;5126841;28;19988;-73
2021/01/11 08:52:31;;;;;;;;;;;6.70;70.20;;;;;;5125553;28;19923;-75
2021/01/11 08:55:11;;;;;;;;;;;6.70;70.50;;;;;;5124492;28;20018;-74
2021/01/11 08:57:38;;;;;;;;;;;6.80;70.40;;;;;;5107605;28;19928;-74
2021/01/11 09:00:08;;;;;;;;;;;6.60;70.00;;;;;;5125571;28;19966;-77
2021/01/11 09:02:34;;;;;;;;;;;6.60;70.70;;;;;;5128245;28;20001;-76
2021/01/11 09:05:18;;;;;;;;;;;6.60;71.00;;;;;;5127410;28;19945;-77
2021/01/11 09:07:45;;;;;;;;;;;6.70;70.20;;;;;;5109694;28;19924;-76
2021/01/11 09:10:18;;;;;;;;;;;6.70;70.40;;;;;;5125996;28;19923;-72
2021/01/11 09:12:44;;;;;;;;;;;6.90;69.70;;;;;;5107443;28;19945;-77
2021/01/11 09:15:11;;;;;;;;;;;7.10;69.10;;;;;;5127195;28;19991;-78
2021/01/11 09:17:37;;;;;;;;;;;7.20;68.50;;;;;;5121047;28;19969;-75
2021/01/11 09:20:04;;;;;;;;;;;6.90;68.70;;;;;;5093897;28;19934;-75
2021/01/11 09:22:33;;;;;;;;;;;7.20;68.50;;;;;;5112081;28;19970;-73
2021/01/11 09:25:00;;;;;;;;;;;7.20;68.30;;;;;;5114422;28;19924;-75
2021/01/11 09:27:27;;;;;;;;;;;7.40;68.00;;;;;;5116976;28;20387;-75
2021/01/11 09:29:53;;;;;;;;;;;7.10;68.30;;;;;;5116712;28;20322;-76
2021/01/11 09:32:20;;;;;;;;;;;7.30;68.10;;;;;;5115236;28;19923;-74
2021/01/11 09:34:48;;;;;;;;;;;7.30;67.60;;;;;;5098760;28;19924;-75
2021/01/11 09:37:16;;;;;;;;;;;7.30;68.20;;;;;;5116623;28;19935;-76
2021/01/11 09:39:42;;;;;;;;;;;7.40;68.00;;;;;;5116497;28;19969;-74
2021/01/11 09:42:09;;;;;;;;;;;7.20;68.40;;;;;;5115443;28;20457;-74
2021/01/11 09:44:35;;;;;;;;;;;7.00;68.80;;;;;;5115530;28;19923;-74
2021/01/11 09:47:04;;;;;;;;;;;6.80;70.40;;;;;;5097075;28;19933;-74
2021/01/11 09:49:32;;;;;;;;;;;6.90;69.40;;;;;;5115463;28;19924;-73
2021/01/11 09:51:58;;;;;;;;;;;7.10;69.10;;;;;;5115491;28;19923;-74
2021/01/11 09:54:24;;;;;;;;;;;7.20;68.80;;;;;;5116336;28;19941;-74
2021/01/11 09:56:50;;;;;;;;;;;7.00;69.70;;;;;;5115804;28;19982;-74
2021/01/11 09:59:17;;;;;;;;;;;6.90;70.20;;;;;;5115817;28;20448;-74
2021/01/11 10:01:47;;;;;;;;;;;6.90;70.80;;;;;;5115390;28;19970;-74
2021/01/11 10:04:15;;;;;;;;;;;6.90;70.20;;;;;;5115549;28;19974;-73
2021/01/11 10:06:42;;;;;;;;;;;7.00;70.10;;;;;;5115192;28;20019;-74
2021/01/11 10:09:13;;;;;;;;;;;7.00;70.30;;;;;;5115173;28;19934;-74
2021/01/11 10:11:40;;;;;;;;;;;7.10;69.60;;;;;;5115883;28;19966;-74
2021/01/11 10:14:06;;;;;;;;;;;7.20;69.70;;;;;;5114999;28;19967;-74
2021/01/11 10:16:33;;;;;;;;;;;7.20;69.10;;;;;;5114848;28;19986;-74
2021/01/11 10:18:59;;;;;;;;;;;7.10;69.50;;;;;;5096584;28;19924;-74
2021/01/11 10:21:26;;;;;;;;;;;6.90;70.60;;;;;;5114401;28;19974;-74
2021/01/11 10:23:55;;;;;;;;;;;6.70;71.30;;;;;;5114392;28;19935;-74
2021/01/11 10:26:22;;;;;;;;;;;6.90;70.80;;;;;;5114702;28;20011;-73
2021/01/11 10:28:49;;;;;;;;;;;6.70;71.40;;;;;;5096884;28;19945;-74
2021/01/11 10:31:16;;;;;;;;;;;6.80;71.50;;;;;;5114947;28;19924;-73
2021/01/11 10:33:46;;;;;;;;;;;6.80;71.50;;;;;;5097011;28;19932;-73
2021/01/11 10:36:13;;;;;;;;;;;6.70;72.30;;;;;;5096175;28;19993;-73
2021/01/11 10:38:40;;;;;;;;;;;6.80;71.30;;;;;;5094692;28;20403;-73
2021/01/11 10:41:07;;;;;;;;;;;7.20;70.60;;;;;;5112457;27;20295;-73
2021/01/11 10:43:34;;;;;;;;;;;7.00;70.20;;;;;;5115335;28;20347;-73
2021/01/11 10:46:00;;;;;;;;;;;6.70;70.00;;;;;;5096954;28;20332;-74
2021/01/11 10:48:27;;;;;;;;;;;7.00;69.70;;;;;;5114054;28;20376;-74
2021/01/11 10:50:58;;;;;;;;;;;6.90;69.90;;;;;;5114438;28;19975;-74
2021/01/11 10:53:24;;;;;;;;;;;6.80;70.40;;;;;;5114624;28;19931;-74
2021/01/11 10:55:52;;;;;;;;;;;6.90;70.70;;;;;;5115341;28;19923;-73
2021/01/11 10:58:18;;;;;;;;;;;6.70;70.70;;;;;;5114258;28;19924;-73
2021/01/11 11:00:44;;;;;;;;;;;6.70;71.40;;;;;;5096501;28;20018;-74
2021/01/11 11:03:11;;;;;;;;;;;7.80;70.80;;;;;;5114417;28;19931;-74
2021/01/11 11:05:37;;;;;;;;;;;7.00;70.10;;;;;;5114321;28;19924;-74
2021/01/11 11:08:04;;;;;;;;;;;6.70;71.00;;;;;;5096248;28;19927;-74
2021/01/11 11:10:30;;;;;;;;;;;6.80;71.10;;;;;;5113964;28;19975;-74
2021/01/11 11:12:56;;;;;;;;;;;6.70;71.50;;;;;;5114364;28;19931;-76
2021/01/11 11:15:22;;;;;;;;;;;6.80;71.00;;;;;;5096530;28;20008;-77
2021/01/11 11:17:48;;;;;;;;;;;6.90;70.40;;;;;;5113562;28;20401;-75
2021/01/11 11:20:15;;;;;;;;;;;6.60;71.60;;;;;;5114610;28;19973;-77
2021/01/11 11:22:42;;;;;;;;;;;7.00;70.80;;;;;;5116814;28;19923;-77
2021/01/11 11:25:08;;;;;;;;;;;6.90;71.10;;;;;;5097098;28;20232;-77
2021/01/11 11:27:35;;;;;;;;;;;7.00;70.50;;;;;;5114927;28;19930;-77
2021/01/11 11:30:07;;;;;;;;;;;7.10;70.50;;;;;;5115090;28;19951;-76
2021/01/11 11:32:34;;;;;;;;;;;7.00;70.70;;;;;;5097617;28;19927;-77
2021/01/11 11:35:04;;;;;;;;;;;7.10;70.30;;;;;;5115360;28;19924;-77
2021/01/11 11:37:31;;;;;;;;;;;7.10;70.40;;;;;;5115641;28;20296;-76
2021/01/11 11:39:58;;;;;;;;;;;7.20;70.40;;;;;;5116318;28;19991;-76
2021/01/11 11:42:24;;;;;;;;;;;7.20;70.80;;;;;;5117978;28;19959;-76
2021/01/11 11:44:50;;;;;;;;;;;7.20;70.50;;;;;;5116255;28;19923;-74
2021/01/11 11:47:17;;;;;;;;;;;7.20;70.60;;;;;;5115270;28;19927;-76
2021/01/11 11:49:59;;;;;;;;;;;7.20;70.70;;;;;;5102642;28;19983;-76
2021/01/11 11:52:26;;;;;;;;;;;7.70;71.40;;;;;;5103306;28;19924;-76
2021/01/11 11:54:53;;;;;;;;;;;7.30;71.00;;;;;;5122664;28;20387;-73
2021/01/11 11:57:19;;;;;;;;;;;7.20;70.90;;;;;;5122111;28;20010;-72
2021/01/11 11:59:45;;;;;;;;;;;7.20;71.50;;;;;;5124217;28;19946;-78
2021/01/11 12:02:12;;;;;;;;;;;7.50;71.70;;;;;;5127912;28;19948;-75
2021/01/11 12:04:41;;;;;;;;;;;7.20;71.60;;;;;;5133082;28;19924;-75
2021/01/11 12:07:08;;;;;;;;;;;7.30;71.50;;;;;;5133026;28;19949;-77
2021/01/11 12:09:34;;;;;;;;;;;7.50;71.10;;;;;;5129139;28;19923;-77
2021/01/11 12:12:00;;;;;;;;;;;7.50;70.80;;;;;;5124906;28;19931;-78
2021/01/11 12:14:26;;;;;;;;;;;7.50;71.20;;;;;;5103907;28;20014;-79
2021/01/11 12:16:54;;;;;;;;;;;7.40;71.40;;;;;;5120010;28;20007;-78
2021/01/11 12:19:20;;;;;;;;;;;7.40;71.70;;;;;;5122635;28;19939;-77
2021/01/11 12:21:46;;;;;;;;;;;7.40;71.40;;;;;;5124173;28;19915;-75
2021/01/11 12:24:12;;;;;;;;;;;7.40;71.10;;;;;;5122585;28;19962;-77
2021/01/11 12:26:39;;;;;;;;;;;7.30;71.80;;;;;;5126230;28;19956;-78
2021/01/11 12:29:05;;;;;;;;;;;7.30;72.20;;;;;;5130248;28;19947;-71
2021/01/11 12:31:31;;;;;;;;;;;7.40;71.60;;;;;;5130941;28;19924;-78
2021/01/11 12:33:57;;;;;;;;;;;7.50;71.10;;;;;;5128307;28;19923;-74
2021/01/11 12:36:30;;;;;;;;;;;7.30;71.50;;;;;;5130233;28;19930;-74
2021/01/11 12:38:57;;;;;;;;;;;7.40;71.80;;;;;;5119351;28;19924;-76
2021/01/11 12:41:24;;;;;;;;;;;7.60;71.00;;;;;;5119204;28;19932;-73
2021/01/11 12:43:50;;;;;;;;;;;7.60;70.60;;;;;;5137444;28;19938;-74
2021/01/11 12:46:17;;;;;;;;;;;7.50;71.00;;;;;;5137326;28;19927;-73
2021/01/11 12:48:44;;;;;;;;;;;7.70;70.20;;;;;;5117959;28;19934;-73
2021/01/11 12:51:17;;;;;;;;;;;7.70;70.80;;;;;;5135680;28;19931;-73
2021/01/11 12:53:44;;;;;;;;;;;7.60;70.00;;;;;;5130737;28;19935;-73
2021/01/11 12:56:12;;;;;;;;;;;7.70;70.60;;;;;;5117697;28;19946;-74
2021/01/11 12:58:48;;;;;;;;;;;7.40;71.00;;;;;;5115275;28;19916;-73
2021/01/11 13:01:24;;;;;;;;;;;7.60;71.10;;;;;;5117393;28;19950;-72
2021/01/11 13:03:53;;;;;;;;;;;7.80;70.10;;;;;;5100143;28;19930;-77
2021/01/11 13:06:20;;;;;;;;;;;7.60;70.90;;;;;;5108481;28;19947;-77
2021/01/11 13:08:48;;;;;;;;;;;7.80;70.30;;;;;;5088356;28;19924;-72
2021/01/11 13:11:16;;;;;;;;;;;7.90;69.60;;;;;;5106729;28;19947;-74
2021/01/11 13:13:43;;;;;;;;;;;8.10;68.60;;;;;;5104141;28;19931;-79
2021/01/11 13:16:09;;;;;;;;;;;8.00;69.00;;;;;;5117221;28;19945;-79
2021/01/11 13:18:35;;;;;;;;;;;8.00;69.40;;;;;;5149489;28;19931;-79
2021/01/11 13:21:02;;;;;;;;;;;8.00;69.00;;;;;;5152177;28;19949;-74
2021/01/11 13:23:28;;;;;;;;;;;8.10;68.50;;;;;;5153689;28;19930;-79
2021/01/11 13:25:54;;;;;;;;;;;8.00;68.40;;;;;;5150828;28;19930;-75
2021/01/11 13:28:20;;;;;;;;;;;8.00;68.50;;;;;;5148678;28;19944;-78
2021/01/11 13:30:46;;;;;;;;;;;8.00;69.10;;;;;;5108785;28;19959;-78
2021/01/11 13:33:12;;;;;;;;;;;7.90;69.20;;;;;;5126934;28;19977;-79
2021/01/11 13:35:40;;;;;;;;;;;7.90;69.80;;;;;;5124319;28;19951;-80
2021/01/11 13:38:06;;;;;;;;;;;8.00;68.80;;;;;;5110339;28;19924;-76
2021/01/11 13:40:33;;;;;;;;;;;8.00;68.80;;;;;;5106869;28;20337;-74
2021/01/11 13:43:03;;;;;;;;;;;8.00;68.70;;;;;;5125458;28;19931;-72
2021/01/11 13:45:33;;;;;;;;;;;8.10;68.10;;;;;;5108116;28;19928;-75
2021/01/11 13:47:59;;;;;;;;;;;8.20;67.80;;;;;;5126340;28;19934;-78
2021/01/11 13:50:25;;;;;;;;;;;8.30;67.80;;;;;;5126383;28;19930;-71
2021/01/11 13:52:51;;;;;;;;;;;8.20;68.20;;;;;;5127217;28;19932;-77
2021/01/11 13:55:17;;;;;;;;;;;8.10;68.20;;;;;;5124655;28;19970;-80
2021/01/11 13:57:43;;;;;;;;;;;8.00;68.80;;;;;;5123301;28;20379;-74
2021/01/11 14:00:10;;;;;;;;;;;7.80;70.00;;;;;;5120723;28;20376;-76
2021/01/11 14:02:37;;;;;;;;;;;7.90;69.40;;;;;;5123298;28;19987;-77
2021/01/11 14:05:03;;;;;;;;;;;7.80;70.10;;;;;;5124028;28;19950;-73
2021/01/11 14:07:30;;;;;;;;;;;7.90;69.80;;;;;;5105730;28;19927;-77
2021/01/11 14:09:56;;;;;;;;;;;7.90;69.60;;;;;;5122576;28;20022;-77
2021/01/11 14:12:22;;;;;;;;;;;8.00;69.20;;;;;;5123058;28;19924;-76
2021/01/11 14:14:50;;;;;;;;;;;8.00;69.30;;;;;;5122776;28;20018;-79
2021/01/11 14:17:17;;;;;;;;;;;7.80;69.60;;;;;;5106825;28;19924;-72
2021/01/11 14:19:43;;;;;;;;;;;7.70;70.30;;;;;;5123606;28;19931;-73
2021/01/11 14:22:12;;;;;;;;;;;7.80;70.30;;;;;;5131027;28;20418;-71
2021/01/11 14:24:39;;;;;;;;;;;7.70;70.30;;;;;;5130807;28;19931;-72
2021/01/11 14:27:09;;;;;;;;;;;7.70;71.00;;;;;;5121931;28;19946;-71
2021/01/11 14:29:35;;;;;;;;;;;7.60;71.20;;;;;;5115492;28;19969;-77
2021/01/11 14:32:02;;;;;;;;;;;7.60;71.20;;;;;;5115741;28;19970;-76
2021/01/11 14:34:28;;;;;;;;;;;7.60;70.80;;;;;;5115274;28;19931;-75
2021/01/11 14:36:55;;;;;;;;;;;7.70;70.00;;;;;;5115281;28;19928;-76
2021/01/11 14:39:22;;;;;;;;;;;7.80;69.80;;;;;;5115029;28;20288;-76